Time;durP1;ratioP1;P1;durP2;ratioP2;P2;SDS_P1;SDS_P2;PMS_P1;PMS_P2;Temp;Humidity;BMP_temperature;BMP_pressure;BME280_temperature;BME280_humidity;BME280_pressure;Samples;Min_cycle;Max_cycle;Signal;HPM_P1;HPM_P2
2022/01/10 00:00:12;;;;;;;82.62;33.63;;;;;;;-0.88;100.00;99304.80;1762961;80;21052;-63
2022/01/10 00:02:44;;;;;;;84.58;33.48;;;;;;;-0.86;100.00;99306.94;1758801;80;21076;-64
2022/01/10 00:05:11;;;;;;;79.42;32.08;;;;;;;-0.85;100.00;99306.09;1767015;80;21310;-66
2022/01/10 00:07:39;;;;;;;88.20;34.65;;;;;;;-0.84;100.00;99309.09;1778101;80;21894;-65
2022/01/10 00:10:09;;;;;;;82.22;34.38;;;;;;;-0.86;100.00;99297.89;1778350;80;21055;-65
2022/01/10 00:12:37;;;;;;;91.08;36.13;;;;;;;-0.88;100.00;99306.08;1778057;80;21561;-65
2022/01/10 00:15:05;;;;;;;82.62;33.75;;;;;;;-0.89;100.00;99302.65;1778110;80;21060;-65
2022/01/10 00:17:33;;;;;;;77.95;32.13;;;;;;;-0.91;100.00;99304.81;1778638;80;21536;-66
2022/01/10 00:19:59;;;;;;;81.02;31.93;;;;;;;-0.91;100.00;99322.47;1777904;80;21712;-65
2022/01/10 00:22:26;;;;;;;75.72;30.37;;;;;;;-0.91;100.00;99312.57;1778368;80;21021;-65
2022/01/10 00:24:53;;;;;;;74.45;31.62;;;;;;;-0.93;100.00;99314.30;1777859;80;21032;-64
2022/01/10 00:27:21;;;;;;;87.78;33.95;;;;;;;-0.92;100.00;99312.12;1745030;80;21539;-64
2022/01/10 00:29:47;;;;;;;83.82;33.90;;;;;;;-0.94;100.00;99320.34;1726300;82;21043;-66
2022/01/10 00:32:15;;;;;;;81.90;33.67;;;;;;;-0.96;100.00;99320.78;1765970;80;21088;-66
2022/01/10 00:34:43;;;;;;;74.45;30.80;;;;;;;-0.98;100.00;99323.80;1710020;83;21534;-66
2022/01/10 00:37:09;;;;;;;60.78;25.70;;;;;;;-0.98;100.00;99329.82;1710075;83;21108;-65
2022/01/10 00:39:37;;;;;;;72.00;29.92;;;;;;;-0.99;100.00;99332.39;1713059;83;21074;-64
2022/01/10 00:42:04;;;;;;;81.80;32.05;;;;;;;-1.00;100.00;99324.23;1715281;83;21077;-65
2022/01/10 00:44:37;;;;;;;72.10;29.65;;;;;;;-1.03;100.00;99325.55;1717045;83;21909;-65
2022/01/10 00:46:59;;;;;;;66.07;26.27;;;;;;;-1.06;100.00;99337.61;1727680;82;21556;-66
2022/01/10 00:49:26;;;;;;;69.55;28.85;;;;;;;-1.06;100.00;99332.44;1728434;83;21053;-65
2022/01/10 00:51:52;;;;;;;66.30;28.42;;;;;;;-1.06;100.00;99327.27;1728575;82;21100;-66
2022/01/10 00:54:19;;;;;;;60.43;27.80;;;;;;;-1.03;100.00;99332.00;1728767;82;21100;-65
2022/01/10 00:56:45;;;;;;;61.35;25.45;;;;;;;-1.03;100.00;99327.69;1728442;83;21163;-65
2022/01/10 00:59:12;;;;;;;62.05;26.68;;;;;;;-0.98;100.00;99330.26;1709839;83;21097;-64
2022/01/10 01:01:40;;;;;;;60.78;26.42;;;;;;;-0.93;100.00;99337.56;1728561;83;21085;-65
2022/01/10 01:04:07;;;;;;;59.93;26.12;;;;;;;-0.92;100.00;99330.22;1728567;83;21108;-64
2022/01/10 01:06:34;;;;;;;55.17;26.20;;;;;;;-0.93;100.00;99340.14;1728621;83;21104;-65
2022/01/10 01:09:05;;;;;;;56.30;24.55;;;;;;;-0.93;100.00;99342.73;1728447;83;21155;-66
2022/01/10 01:12:02;;;;;;;52.33;23.87;;;;;;;-0.94;100.00;99341.02;1728393;82;21073;-64
2022/01/10 01:14:21;;;;;;;47.75;22.90;;;;;;;-0.94;100.00;99335.85;1725601;83;21050;-65
2022/01/10 01:19:50;;;;;;;48.90;21.65;;;;;;;-0.90;100.00;99347.88;1729289;82;21124;-65
2022/01/10 01:24:19;;;;;;;56.98;26.20;;;;;;;-0.94;100.00;99343.61;1728433;82;21034;-66
2022/01/10 01:26:49;;;;;;;52.67;24.92;;;;;;;-0.92;100.00;99344.44;1728734;83;21101;-65
2022/01/10 01:29:19;;;;;;;55.53;24.47;;;;;;;-0.95;100.00;99347.04;1729115;83;21045;-64
2022/01/10 01:31:45;;;;;;;53.15;24.65;;;;;;;-0.95;100.00;99347.04;1728576;82;21073;-65
2022/01/10 01:34:15;;;;;;;51.10;24.05;;;;;;;-0.96;100.00;99351.80;1728240;83;21176;-65
2022/01/10 01:36:46;;;;;;;50.70;22.48;;;;;;;-0.99;100.00;99347.91;1728250;83;21057;-65
2022/01/10 01:39:21;;;;;;;48.28;22.22;;;;;;;-1.00;100.00;99351.37;1733993;82;21067;-65
2022/01/10 01:41:47;;;;;;;48.85;22.45;;;;;;;-1.03;100.00;99352.68;1723801;82;21045;-64
2022/01/10 01:44:14;;;;;;;43.83;20.80;;;;;;;-1.05;100.00;99359.13;1749567;82;21076;-66
2022/01/10 01:46:42;;;;;;;43.52;20.15;;;;;;;-1.08;100.00;99356.13;1749523;82;21089;-66
2022/01/10 01:49:09;;;;;;;40.65;19.98;;;;;;;-1.11;100.00;99349.66;1749724;82;21010;-64
2022/01/10 01:51:35;;;;;;;38.95;19.12;;;;;;;-1.16;100.00;99352.69;1749592;82;21077;-65
2022/01/10 01:54:03;;;;;;;44.40;21.70;;;;;;;-1.35;100.00;99334.22;1727311;82;21054;-65
2022/01/10 01:56:30;;;;;;;48.75;21.80;;;;;;;-1.22;100.00;99361.77;1719785;83;21039;-64
2022/01/10 01:58:57;;;;;;;48.58;21.82;;;;;;;-1.26;100.00;99366.50;1719434;83;21134;-64
2022/01/10 02:01:25;;;;;;;46.28;23.67;;;;;;;-1.30;100.00;99366.06;1719508;83;21056;-68
2022/01/10 02:03:52;;;;;;;47.00;21.85;;;;;;;-1.33;100.00;99368.66;1719762;83;21134;-67
2022/01/10 02:06:21;;;;;;;48.02;23.02;;;;;;;-1.35;100.00;99372.97;1719347;83;21063;-66
2022/01/10 02:08:48;;;;;;;44.75;19.85;;;;;;;-1.36;100.00;99376.39;1719462;83;21574;-64
2022/01/10 02:11:16;;;;;;;44.23;20.55;;;;;;;-1.37;100.00;99378.56;1719723;82;21070;-65
2022/01/10 02:13:43;;;;;;;50.17;22.17;;;;;;;-1.39;100.00;99368.66;1719396;83;21012;-65
2022/01/10 02:16:41;;;;;;;49.33;23.30;;;;;;;-1.40;100.00;99376.84;1719395;83;21110;-65
2022/01/10 02:19:03;;;;;;;40.17;19.95;;;;;;;-1.41;100.00;99378.13;1718543;83;21149;-64
2022/01/10 02:21:30;;;;;;;46.13;22.07;;;;;;;-1.43;100.00;99388.45;1719664;83;21126;-64
2022/01/10 02:23:58;;;;;;;44.63;20.90;;;;;;;-1.43;100.00;99386.30;1719252;83;21126;-64
2022/01/10 02:26:26;;;;;;;33.15;17.95;;;;;;;-1.44;100.00;99388.47;1718525;83;21080;-65
2022/01/10 02:28:53;;;;;;;39.88;19.25;;;;;;;-1.49;100.00;99389.77;1719637;83;21019;-65
2022/01/10 02:31:19;;;;;;;38.13;19.35;;;;;;;-1.52;100.00;99398.78;1720240;83;21077;-64
2022/01/10 02:33:50;;;;;;;39.70;20.52;;;;;;;-1.55;100.00;99397.06;1724714;82;21118;-64
2022/01/10 02:36:23;;;;;;;39.67;21.30;;;;;;;-1.55;100.00;99398.35;1719539;83;21176;-65
2022/01/10 02:38:51;;;;;;;38.80;19.12;;;;;;;-1.55;100.00;99403.95;1718242;83;21003;-65
2022/01/10 02:41:30;;;;;;;35.33;17.57;;;;;;;-1.56;100.00;99412.58;1670292;85;21162;-66
2022/01/10 02:43:58;;;;;;;38.33;18.20;;;;;;;-1.58;100.00;99414.30;1670901;85;21090;-65
2022/01/10 02:46:25;;;;;;;36.68;18.35;;;;;;;-1.59;100.00;99406.95;1671092;85;21102;-65
2022/01/10 02:48:53;;;;;;;43.68;20.35;;;;;;;-1.60;100.00;99406.53;1670927;85;21976;-70
2022/01/10 02:51:20;;;;;;;36.38;19.77;;;;;;;-1.62;100.00;99416.00;1671903;84;21606;-71
2022/01/10 02:53:47;;;;;;;40.10;19.37;;;;;;;-1.62;100.00;99409.98;1671333;85;21039;-71
2022/01/10 02:56:15;;;;;;;37.15;19.07;;;;;;;-1.62;100.00;99421.16;1671275;85;21747;-71
2022/01/10 02:58:43;;;;;;;38.73;18.27;;;;;;;-1.61;100.00;99426.78;1671329;85;21063;-70
2022/01/10 03:01:10;;;;;;;32.40;16.40;;;;;;;-1.61;100.00;99430.65;1671272;85;21176;-70
2022/01/10 03:03:38;;;;;;;31.75;16.80;;;;;;;-1.66;100.00;99434.92;1671050;85;21016;-69
2022/01/10 03:06:05;;;;;;;30.97;15.08;;;;;;;-1.68;100.00;99436.64;1671186;85;21012;-68
2022/01/10 03:08:33;;;;;;;31.68;17.02;;;;;;;-1.72;100.00;99436.23;1671210;85;21635;-70
2022/01/10 03:11:02;;;;;;;33.08;16.90;;;;;;;-1.76;100.00;99431.47;1671045;85;21115;-69
2022/01/10 03:13:30;;;;;;;32.88;17.30;;;;;;;-1.75;100.00;99446.13;1671303;85;21043;-68
2022/01/10 03:15:57;;;;;;;36.77;18.10;;;;;;;-1.74;100.00;99460.73;1671057;85;21024;-70
2022/01/10 03:18:24;;;;;;;36.05;18.40;;;;;;;-1.73;100.00;99458.58;1671332;85;21083;-68
2022/01/10 03:20:51;;;;;;;28.55;14.87;;;;;;;-1.72;100.00;99460.75;1642801;85;21064;-69
2022/01/10 03:23:17;;;;;;;39.27;19.42;;;;;;;-1.71;100.00;99462.45;1671590;85;21037;-69
2022/01/10 03:25:44;;;;;;;40.43;18.20;;;;;;;-1.68;100.00;99457.29;1642431;85;21164;-70
2022/01/10 03:28:14;;;;;;;31.52;16.27;;;;;;;-1.66;100.00;99462.03;1673108;85;21037;-69
2022/01/10 03:30:41;;;;;;;37.00;18.80;;;;;;;-1.63;100.00;99458.19;1674747;85;21052;-69
2022/01/10 03:33:10;;;;;;;36.98;18.65;;;;;;;-1.61;100.00;99458.16;1673697;85;21579;-70
2022/01/10 03:35:37;;;;;;;32.78;16.95;;;;;;;-1.61;100.00;99471.96;1672144;85;21024;-69
2022/01/10 03:38:05;;;;;;;39.40;19.32;;;;;;;-1.62;100.00;99470.22;1684425;84;21241;-71
2022/01/10 03:40:33;;;;;;;36.05;17.10;;;;;;;-1.61;100.00;99477.13;1708672;83;21491;-69
2022/01/10 03:43:02;;;;;;;33.67;16.90;;;;;;;-1.59;100.00;99471.94;1688830;84;21663;-68
2022/01/10 03:45:28;;;;;;;33.35;17.23;;;;;;;-1.60;100.00;99478.84;1699854;84;22201;-68
2022/01/10 03:47:55;;;;;;;36.60;17.80;;;;;;;-1.60;100.00;99480.13;1689044;84;21021;-67
2022/01/10 03:50:23;;;;;;;44.18;19.77;;;;;;;-1.63;100.00;99478.84;1699495;84;21156;-68
2022/01/10 03:56:30;;;;;;;34.73;15.23;;;;;;;-1.65;100.00;99480.55;1795874;79;22592;-71
2022/01/10 03:58:56;;;;;;;44.05;19.42;;;;;;;-1.74;100.00;99488.28;1720335;82;21752;-71
2022/01/10 04:01:24;;;;;;;47.93;20.72;;;;;;;-1.73;100.00;99483.53;1747458;82;21044;-72
2022/01/10 04:03:53;;;;;;;44.23;20.25;;;;;;;-1.71;100.00;99485.69;1747166;82;21554;-67
2022/01/10 04:06:20;;;;;;;41.33;19.85;;;;;;;-1.71;100.00;99476.22;1747626;82;21605;-68
2022/01/10 04:08:47;;;;;;;44.48;20.70;;;;;;;-1.67;100.00;99495.61;1747345;82;20981;-70
2022/01/10 04:11:14;;;;;;;47.75;22.05;;;;;;;-1.69;100.00;99493.02;1747375;82;21088;-68
2022/01/10 04:13:40;;;;;;;44.25;20.88;;;;;;;-1.72;100.00;99496.89;1747425;82;21145;-70
2022/01/10 04:16:07;;;;;;;44.55;21.52;;;;;;;-1.74;100.00;99497.31;1747263;81;21084;-70
2022/01/10 04:18:34;;;;;;;38.65;17.95;;;;;;;-1.75;100.00;99491.70;1747524;82;21018;-70
2022/01/10 04:21:02;;;;;;;43.60;21.17;;;;;;;-1.75;100.00;99497.75;1747251;81;21003;-71
2022/01/10 04:23:30;;;;;;;44.80;18.70;;;;;;;-1.75;100.00;99500.33;1747567;82;21080;-71
2022/01/10 04:25:57;;;;;;;52.73;23.00;;;;;;;-1.74;100.00;99497.31;1747244;81;21171;-70
2022/01/10 04:28:24;;;;;;;46.08;20.70;;;;;;;-1.69;100.00;99502.05;1717898;82;21062;-68
2022/01/10 04:30:51;;;;;;;48.50;21.77;;;;;;;-1.70;100.00;99500.34;1747163;82;21050;-71
2022/01/10 04:33:19;;;;;;;40.55;19.62;;;;;;;-1.72;100.00;99513.23;1747582;82;21057;-71
2022/01/10 04:35:49;;;;;;;50.03;21.87;;;;;;;-1.74;100.00;99516.67;1737254;82;21063;-69
2022/01/10 04:38:16;;;;;;;46.23;21.75;;;;;;;-1.75;100.00;99514.53;1732931;82;21171;-69
2022/01/10 04:40:43;;;;;;;46.00;20.72;;;;;;;-1.72;100.00;99525.29;1736660;82;21014;-71
2022/01/10 04:43:11;;;;;;;50.70;21.95;;;;;;;-1.74;100.00;99517.97;1747616;82;21049;-70
2022/01/10 04:45:38;;;;;;;48.92;22.42;;;;;;;-1.73;100.00;99522.25;1747303;82;21013;-71
2022/01/10 04:48:05;;;;;;;49.93;23.70;;;;;;;-1.71;100.00;99533.45;1741829;82;21049;-68
2022/01/10 04:53:16;;;;;;;41.92;20.43;;;;;;;-1.70;100.00;99544.23;1744406;82;21037;-69
2022/01/10 04:55:43;;;;;;;41.58;20.85;;;;;;;-1.68;100.00;99536.03;1737768;82;21053;-66
2022/01/10 04:58:09;;;;;;;48.33;23.05;;;;;;;-1.68;100.00;99543.78;1731470;82;21045;-66
2022/01/10 05:00:36;;;;;;;39.73;18.20;;;;;;;-1.66;100.00;99543.36;1721011;81;21069;-68
2022/01/10 05:03:04;;;;;;;47.43;21.52;;;;;;;-1.65;100.00;99543.81;1733162;82;21155;-66
2022/01/10 05:05:31;;;;;;;43.60;20.17;;;;;;;-1.63;100.00;99551.13;1717381;83;21056;-68
2022/01/10 05:07:58;;;;;;;50.75;21.65;;;;;;;-1.62;100.00;99555.42;1720698;82;21573;-67
2022/01/10 05:10:25;;;;;;;48.98;22.30;;;;;;;-1.59;100.00;99559.73;1733709;82;22143;-65
2022/01/10 05:12:52;;;;;;;49.58;22.75;;;;;;;-1.58;100.00;99567.94;1742847;82;21061;-68
2022/01/10 05:15:19;;;;;;;50.70;22.60;;;;;;;-1.59;100.00;99567.48;1734903;82;21113;-66
2022/01/10 05:17:46;;;;;;;47.60;22.73;;;;;;;-1.62;100.00;99573.50;1735181;82;21094;-67
2022/01/10 05:20:13;;;;;;;51.42;22.75;;;;;;;-1.63;100.00;99582.13;1738557;82;21707;-66
2022/01/10 05:22:40;;;;;;;43.87;21.57;;;;;;;-1.66;100.00;99576.92;1740190;82;22081;-66
2022/01/10 05:25:07;;;;;;;43.70;20.68;;;;;;;-1.66;100.00;99585.95;1735493;82;21145;-67
2022/01/10 05:27:35;;;;;;;49.35;22.10;;;;;;;-1.69;100.00;99588.10;1722550;82;21415;-68
2022/01/10 05:30:05;;;;;;;44.48;20.05;;;;;;;-1.70;100.00;99586.83;1717639;83;21029;-67
2022/01/10 05:32:32;;;;;;;47.00;22.10;;;;;;;-1.74;100.00;99588.52;1738721;82;21072;-67
2022/01/10 05:35:17;;;;;;;48.90;21.85;;;;;;;-1.75;100.00;99591.09;1736987;82;21545;-67
2022/01/10 05:37:44;;;;;;;51.98;21.85;;;;;;;-1.77;100.00;99591.50;1744467;82;21609;-66
2022/01/10 05:40:12;;;;;;;47.23;21.85;;;;;;;-1.78;100.00;99600.98;1680564;85;21855;-68
2022/01/10 05:42:39;;;;;;;47.58;21.97;;;;;;;-1.76;100.00;99603.58;1717518;83;21041;-67
2022/01/10 05:45:07;;;;;;;41.77;19.73;;;;;;;-1.77;100.00;99610.86;1676741;85;21104;-66
2022/01/10 05:47:40;;;;;;;49.33;22.30;;;;;;;-1.78;100.00;99615.61;1717606;83;21092;-67
2022/01/10 05:50:04;;;;;;;46.13;20.95;;;;;;;-1.77;100.00;99616.03;1717775;82;21545;-68
2022/01/10 05:52:34;;;;;;;49.67;21.62;;;;;;;-1.77;100.00;99610.86;1717655;83;21061;-67
2022/01/10 05:55:02;;;;;;;49.48;22.77;;;;;;;-1.76;100.00;99612.61;1713328;82;21073;-66
2022/01/10 05:57:28;;;;;;;47.73;22.15;;;;;;;-1.74;100.00;99619.94;1707754;83;21031;-67
2022/01/10 05:59:55;;;;;;;52.13;23.77;;;;;;;-1.73;100.00;99621.22;1706075;82;21050;-64
2022/01/10 06:02:22;;;;;;;44.85;21.60;;;;;;;-1.70;100.00;99626.84;1729370;82;21133;-65
2022/01/10 06:04:51;;;;;;;50.98;23.47;;;;;;;-1.66;100.00;99631.14;1684506;84;21167;-65
2022/01/10 06:07:19;;;;;;;49.08;23.15;;;;;;;-1.65;100.00;99635.47;1693124;84;21101;-64
2022/01/10 06:09:47;;;;;;;46.30;21.62;;;;;;;-1.62;100.00;99638.05;1689174;84;21072;-63
2022/01/10 06:12:14;;;;;;;44.83;21.30;;;;;;;-1.63;100.00;99645.38;1665746;86;21613;-65
2022/01/10 06:14:41;;;;;;;43.33;20.55;;;;;;;-1.63;100.00;99653.13;1690211;84;21128;-65
2022/01/10 06:17:07;;;;;;;48.42;22.70;;;;;;;-1.64;100.00;99650.09;1680452;84;21580;-64
2022/01/10 06:19:34;;;;;;;44.75;21.00;;;;;;;-1.64;100.00;99652.67;1716794;83;21052;-64
2022/01/10 06:22:00;;;;;;;55.60;23.98;;;;;;;-1.64;100.00;99661.70;1720167;82;21294;-63
2022/01/10 06:24:28;;;;;;;44.88;21.15;;;;;;;-1.62;100.00;99666.45;1719174;83;21016;-64
2022/01/10 06:26:55;;;;;;;47.93;20.82;;;;;;;-1.60;100.00;99669.05;1718139;82;21037;-64
2022/01/10 06:29:23;;;;;;;39.45;20.23;;;;;;;-1.61;100.00;99673.37;1702888;82;21163;-64
2022/01/10 06:31:49;;;;;;;39.75;18.52;;;;;;;-1.62;100.00;99675.49;1704116;82;21105;-64
2022/01/10 06:34:18;;;;;;;40.92;19.90;;;;;;;-1.60;100.00;99674.22;1704166;84;21023;-64
2022/01/10 06:36:46;;;;;;;41.85;21.15;;;;;;;-1.59;100.00;99676.79;1717400;81;21043;-63
2022/01/10 06:39:13;;;;;;;44.50;21.37;;;;;;;-1.60;100.00;99677.66;1703628;83;21104;-65
2022/01/10 06:41:41;;;;;;;45.30;21.73;;;;;;;-1.60;100.00;99677.66;1723949;82;21758;-64
2022/01/10 06:44:09;;;;;;;42.88;20.10;;;;;;;-1.60;100.00;99681.53;1739067;82;21147;-65
2022/01/10 06:46:36;;;;;;;45.52;20.57;;;;;;;-1.59;100.00;99681.95;1739036;82;21143;-65
2022/01/10 06:49:03;;;;;;;44.00;21.52;;;;;;;-1.58;100.00;99681.11;1728432;82;21057;-64
2022/01/10 06:51:30;;;;;;;46.02;22.22;;;;;;;-1.56;100.00;99685.86;1716544;82;21080;-64
2022/01/10 06:53:58;;;;;;;45.73;21.90;;;;;;;-1.53;100.00;99689.74;1701957;82;21429;-65
2022/01/10 06:56:25;;;;;;;42.25;21.12;;;;;;;-1.49;100.00;99695.36;1703377;82;21082;-64
2022/01/10 06:58:53;;;;;;;47.35;22.07;;;;;;;-1.50;100.00;99710.41;1704815;82;21065;-65
2022/01/10 07:01:22;;;;;;;44.48;21.65;;;;;;;-1.49;100.00;99703.55;1717413;82;21120;-65
2022/01/10 07:03:52;;;;;;;39.75;19.20;;;;;;;-1.48;100.00;99711.28;1725917;82;21049;-66
2022/01/10 07:06:20;;;;;;;47.75;22.22;;;;;;;-1.48;100.00;99712.57;1717095;82;21164;-65
2022/01/10 07:08:49;;;;;;;46.85;21.90;;;;;;;-1.46;100.00;99716.90;1718883;82;21117;-65
2022/01/10 07:11:16;;;;;;;46.33;21.90;;;;;;;-1.46;100.00;99714.31;1716521;82;21149;-65
2022/01/10 07:13:44;;;;;;;45.08;21.77;;;;;;;-1.45;100.00;99721.20;1707963;82;21061;-64
2022/01/10 07:16:11;;;;;;;46.90;20.75;;;;;;;-1.44;100.00;99721.65;1695793;82;21484;-64
2022/01/10 07:18:39;;;;;;;40.15;20.37;;;;;;;-1.42;100.00;99722.52;1720314;82;21122;-65
2022/01/10 07:21:07;;;;;;;42.38;21.23;;;;;;;-1.43;100.00;99727.23;1703889;82;21113;-65
2022/01/10 07:23:34;;;;;;;38.83;20.45;;;;;;;-1.40;100.00;99725.95;1716332;82;21066;-66
2022/01/10 07:26:01;;;;;;;45.52;21.15;;;;;;;-1.39;100.00;99725.11;1731451;82;21101;-65
2022/01/10 07:28:27;;;;;;;45.05;21.35;;;;;;;-1.39;100.00;99725.11;1733441;82;21037;-68
2022/01/10 07:30:54;;;;;;;49.20;22.45;;;;;;;-1.38;100.00;99726.42;1712269;82;21866;-67
2022/01/10 07:33:21;;;;;;;44.23;20.88;;;;;;;-1.37;100.00;99732.44;1713521;82;21100;-67
2022/01/10 07:35:48;;;;;;;42.40;19.37;;;;;;;-1.38;100.00;99730.70;1705764;82;21158;-65
2022/01/10 07:38:14;;;;;;;40.33;19.57;;;;;;;-1.35;100.00;99732.03;1716936;81;21067;-65
2022/01/10 07:40:41;;;;;;;41.90;19.82;;;;;;;-1.32;100.00;99730.73;1705034;82;21094;-65
2022/01/10 07:43:07;;;;;;;41.08;20.48;;;;;;;-1.31;100.00;99738.94;1703773;84;21912;-64
2022/01/10 07:45:36;;;;;;;39.13;19.12;;;;;;;-1.29;100.00;99735.91;1704595;82;21077;-65
2022/01/10 07:48:03;;;;;;;45.03;21.35;;;;;;;-1.24;100.00;99739.80;1714156;82;21554;-63
2022/01/10 07:50:30;;;;;;;44.77;20.52;;;;;;;-1.22;100.00;99741.56;1729804;82;21069;-65
2022/01/10 07:52:57;;;;;;;42.08;20.45;;;;;;;-1.19;100.00;99742.86;1711039;82;21096;-65
2022/01/10 07:55:23;;;;;;;45.95;21.85;;;;;;;-1.17;100.00;99745.03;1714727;82;21117;-65
2022/01/10 07:57:50;;;;;;;46.48;21.10;;;;;;;-1.14;100.00;99747.61;1716653;81;21109;-67
2022/01/10 08:00:16;;;;;;;42.50;20.05;;;;;;;-1.15;100.00;99757.53;1709702;81;21066;-67
2022/01/10 08:02:43;;;;;;;52.38;23.18;;;;;;;-1.14;100.00;99754.08;1708097;82;21045;-67
2022/01/10 08:05:11;;;;;;;40.50;20.05;;;;;;;-1.11;100.00;99760.53;1710615;82;21101;-66
2022/01/10 08:07:38;;;;;;;45.90;21.75;;;;;;;-1.09;100.00;99763.14;1733502;82;21051;-66
2022/01/10 08:10:06;;;;;;;45.85;20.80;;;;;;;-1.08;100.00;99764.88;1733695;82;21193;-65
2022/01/10 08:12:32;;;;;;;39.27;18.82;;;;;;;-1.09;100.00;99773.04;1733752;82;21038;-65
2022/01/10 08:14:59;;;;;;;44.08;21.10;;;;;;;-1.10;100.00;99770.03;1733310;82;21061;-65
2022/01/10 08:17:25;;;;;;;43.63;21.05;;;;;;;-1.09;100.00;99773.48;1733677;82;21081;-65
2022/01/10 08:19:52;;;;;;;41.60;18.87;;;;;;;-1.10;100.00;99775.20;1733351;82;21082;-66
2022/01/10 08:22:18;;;;;;;38.00;19.57;;;;;;;-1.12;100.00;99779.50;1724668;82;21097;-65
2022/01/10 08:24:45;;;;;;;42.00;19.87;;;;;;;-1.13;100.00;99782.06;1720967;82;21022;-66
2022/01/10 08:27:12;;;;;;;49.70;21.10;;;;;;;-1.17;100.00;99786.38;1713521;82;21035;-66
2022/01/10 08:29:38;;;;;;;39.65;20.50;;;;;;;-1.19;100.00;99790.66;1727907;82;21175;-66
2022/01/10 08:32:06;;;;;;;43.63;21.02;;;;;;;-1.26;100.00;99786.33;1733378;82;21140;-67
2022/01/10 08:34:33;;;;;;;38.70;20.48;;;;;;;-1.22;100.00;99801.00;1711851;82;21058;-66
2022/01/10 08:36:59;;;;;;;39.20;19.87;;;;;;;-1.20;100.00;99801.84;1724990;82;21097;-66
2022/01/10 08:39:26;;;;;;;43.30;20.45;;;;;;;-1.18;100.00;99796.25;1712084;82;21082;-67
2022/01/10 08:41:52;;;;;;;39.85;19.37;;;;;;;-1.18;100.00;99805.30;1715620;82;21058;-66
2022/01/10 08:44:19;;;;;;;41.37;21.30;;;;;;;-1.17;100.00;99803.60;1706686;82;21138;-66
2022/01/10 08:46:47;;;;;;;36.53;18.23;;;;;;;-1.19;100.00;99807.46;1712756;82;21066;-66
2022/01/10 08:49:13;;;;;;;36.93;18.67;;;;;;;-1.17;100.00;99806.19;1710437;82;21074;-66
2022/01/10 08:51:41;;;;;;;39.38;19.02;;;;;;;-1.18;100.00;99809.17;1717752;82;21132;-65
2022/01/10 08:54:08;;;;;;;34.58;18.02;;;;;;;-1.22;100.00;99806.16;1715690;82;21105;-66
2022/01/10 08:56:36;;;;;;;39.65;19.12;;;;;;;-1.20;100.00;99809.59;1722337;82;21157;-66
2022/01/10 08:59:04;;;;;;;36.80;16.85;;;;;;;-1.18;100.00;99816.92;1732090;82;21081;-65
2022/01/10 09:01:32;;;;;;;37.88;19.45;;;;;;;-1.18;100.00;99813.05;1667944;85;21123;-65
2022/01/10 09:03:59;;;;;;;34.27;16.25;;;;;;;-1.18;100.00;99812.19;1730924;81;21589;-65
2022/01/10 09:06:26;;;;;;;35.15;17.92;;;;;;;-1.20;100.00;99812.17;1725260;82;21065;-65
2022/01/10 09:08:52;;;;;;;33.83;17.55;;;;;;;-1.22;100.00;99811.73;1731491;82;21374;-66
2022/01/10 09:11:20;;;;;;;35.55;17.20;;;;;;;-1.25;100.00;99816.45;1746900;82;21050;-66
2022/01/10 09:13:47;;;;;;;38.23;18.85;;;;;;;-1.29;100.00;99814.70;1740294;82;21059;-67
2022/01/10 09:16:14;;;;;;;34.58;16.82;;;;;;;-1.34;100.00;99820.28;1717462;82;21064;-67
2022/01/10 09:18:41;;;;;;;35.17;17.17;;;;;;;-1.36;100.00;99825.86;1717904;82;21624;-66
2022/01/10 09:21:08;;;;;;;34.35;16.00;;;;;;;-1.36;100.00;99831.03;1722877;82;21127;-65
2022/01/10 09:23:35;;;;;;;30.90;15.98;;;;;;;-1.39;100.00;99827.14;1730827;80;21104;-65
2022/01/10 09:26:01;;;;;;;30.40;16.05;;;;;;;-1.40;100.00;99824.11;1726491;82;21052;-64
2022/01/10 09:28:28;;;;;;;30.45;15.48;;;;;;;-1.40;100.00;99831.86;1662965;85;21096;-65
2022/01/10 09:30:54;;;;;;;31.57;15.63;;;;;;;-1.40;100.00;99828.87;1735007;82;21569;-65
2022/01/10 09:33:21;;;;;;;31.57;15.38;;;;;;;-1.41;100.00;99832.72;1736479;82;21812;-66
2022/01/10 09:35:47;;;;;;;28.73;14.90;;;;;;;-1.40;100.00;99840.50;1737382;82;20999;-65
2022/01/10 09:38:14;;;;;;;29.42;14.20;;;;;;;-1.44;100.00;99840.03;1747198;82;21181;-65
2022/01/10 09:40:41;;;;;;;31.42;14.45;;;;;;;-1.45;100.00;99843.88;1747261;82;21049;-65
2022/01/10 09:43:07;;;;;;;33.15;14.98;;;;;;;-1.49;100.00;99842.58;1747495;82;21131;-65
2022/01/10 09:45:34;;;;;;;32.98;15.08;;;;;;;-1.49;100.00;99843.87;1747476;82;22112;-66
2022/01/10 09:48:01;;;;;;;30.72;14.68;;;;;;;-1.49;100.00;99845.59;1747426;82;21092;-65
2022/01/10 09:50:28;;;;;;;31.30;15.38;;;;;;;-1.48;100.00;99848.17;1747665;82;21049;-66
2022/01/10 09:52:55;;;;;;;32.42;15.25;;;;;;;-1.47;100.00;99851.64;1747772;82;20998;-65
2022/01/10 09:55:21;;;;;;;25.65;13.30;;;;;;;-1.50;100.00;99853.75;1747719;82;21592;-64
2022/01/10 09:57:49;;;;;;;26.10;13.90;;;;;;;-1.54;100.00;99853.31;1742830;81;21160;-66
2022/01/10 10:00:17;;;;;;;27.37;14.73;;;;;;;-1.57;100.00;99857.58;1721979;82;21003;-65
2022/01/10 10:02:44;;;;;;;26.93;14.15;;;;;;;-1.58;100.00;99870.06;1732794;82;21092;-64
2022/01/10 10:05:12;;;;;;;29.50;14.50;;;;;;;-1.61;100.00;99867.03;1730256;82;21226;-67
2022/01/10 10:07:39;;;;;;;30.00;15.68;;;;;;;-1.61;100.00;99870.02;1744540;82;21522;-65
2022/01/10 10:10:11;;;;;;;29.95;14.65;;;;;;;-1.63;100.00;99863.56;1734177;82;21132;-65
2022/01/10 10:12:42;;;;;;;26.13;14.03;;;;;;;-1.64;100.00;99870.86;1736739;82;21080;-64
2022/01/10 10:15:11;;;;;;;28.80;14.15;;;;;;;-1.63;100.00;99869.13;1743954;82;21089;-65
2022/01/10 10:17:42;;;;;;;26.12;14.33;;;;;;;-1.64;100.00;99877.31;1731486;82;21033;-67
2022/01/10 10:20:16;;;;;;;27.90;14.28;;;;;;;-1.65;100.00;99878.18;1739652;82;21064;-66
2022/01/10 10:22:45;;;;;;;23.47;12.85;;;;;;;-1.64;100.00;99876.45;1744920;82;21983;-65
2022/01/10 10:25:12;;;;;;;33.67;14.85;;;;;;;-1.65;100.00;99883.78;1718095;83;21112;-65
2022/01/10 10:27:43;;;;;;;24.57;13.48;;;;;;;-1.67;100.00;99882.47;1727517;82;21017;-65
2022/01/10 10:30:18;;;;;;;33.65;15.25;;;;;;;-1.70;100.00;99883.30;1747494;82;21616;-65
2022/01/10 10:32:46;;;;;;;27.90;13.45;;;;;;;-1.71;100.00;99883.28;1736750;82;21097;-64
2022/01/10 10:35:14;;;;;;;29.65;14.63;;;;;;;-1.71;100.00;99884.57;1732579;82;21161;-65
2022/01/10 10:37:43;;;;;;;30.37;15.05;;;;;;;-1.71;100.00;99886.72;1738990;81;21719;-65
2022/01/10 10:40:14;;;;;;;27.05;12.98;;;;;;;-1.70;100.00;99892.78;1739487;82;21081;-65
2022/01/10 10:42:42;;;;;;;26.35;14.65;;;;;;;-1.72;100.00;99893.19;1747238;81;21052;-65
2022/01/10 10:45:12;;;;;;;29.92;14.47;;;;;;;-1.78;100.00;99887.52;1736639;81;21553;-65
2022/01/10 10:47:42;;;;;;;24.92;11.90;;;;;;;-1.76;100.00;99892.71;1739322;82;21162;-66
2022/01/10 10:50:10;;;;;;;30.23;15.18;;;;;;;-1.77;100.00;99894.83;1717426;83;21065;-65
2022/01/10 10:52:39;;;;;;;30.57;14.13;;;;;;;-1.80;100.00;99903.85;1720941;82;21618;-65
2022/01/10 10:55:09;;;;;;;25.57;13.72;;;;;;;-1.87;100.00;99904.65;1734268;82;21037;-67
2022/01/10 10:57:36;;;;;;;27.50;13.98;;;;;;;-1.93;100.00;99907.62;1722081;82;21117;-65
2022/01/10 11:00:19;;;;;;;26.00;14.33;;;;;;;-1.99;100.00;99906.25;1723469;82;21173;-65
2022/01/10 11:02:39;;;;;;;32.63;14.15;;;;;;;-2.03;100.00;99907.06;1726331;82;21470;-65
2022/01/10 11:05:08;;;;;;;26.12;13.98;;;;;;;-2.07;100.00;99907.91;1725385;82;21438;-65
2022/01/10 11:07:35;;;;;;;33.75;15.38;;;;;;;-2.08;100.00;99915.19;1719108;82;21057;-65
2022/01/10 11:10:05;;;;;;;27.85;13.48;;;;;;;-2.07;100.00;99921.21;1724051;82;21068;-65
2022/01/10 11:12:34;;;;;;;29.02;14.13;;;;;;;-2.13;100.00;99916.86;1725526;82;21168;-65
2022/01/10 11:15:03;;;;;;;28.83;13.98;;;;;;;-2.18;100.00;99928.42;1739298;82;21080;-65
2022/01/10 11:17:30;;;;;;;30.25;15.32;;;;;;;-2.25;100.00;99926.63;1737493;82;21026;-66
2022/01/10 11:20:20;;;;;;;30.50;14.30;;;;;;;-2.32;100.00;99933.42;1717344;83;21033;-64
2022/01/10 11:22:55;;;;;;;31.45;15.32;;;;;;;-2.34;100.00;99936.41;1730842;82;21092;-65